Time;durP1;ratioP1;P1;durP2;ratioP2;P2;SDS_P1;SDS_P2;PMS_P1;PMS_P2;Temp;Humidity;BMP_temperature;BMP_pressure;BME280_temperature;BME280_humidity;BME280_pressure;Samples;Min_cycle;Max_cycle;Signal;HPM_P1;HPM_P2
2023/03/02 00:01:46;;;;;;;9.27;5.93;;;2.60;99.90;;;;;;5119075;28;20019;-68
2023/03/02 00:04:19;;;;;;;11.63;7.10;;;2.60;99.90;;;;;;5102089;28;20020;-68
2023/03/02 00:06:47;;;;;;;9.23;6.05;;;2.60;99.90;;;;;;5119986;28;20028;-67
2023/03/02 00:09:13;;;;;;;7.90;5.38;;;2.60;99.90;;;;;;5119113;28;20338;-67
2023/03/02 00:11:39;;;;;;;10.23;5.72;;;2.50;99.90;;;;;;5102223;28;20051;-68
2023/03/02 00:14:06;;;;;;;7.72;5.70;;;2.50;99.90;;;;;;5102077;28;20080;-67
2023/03/02 00:16:32;;;;;;;8.63;6.05;;;2.50;99.90;;;;;;5118885;28;20036;-67
2023/03/02 00:18:58;;;;;;;7.47;5.30;;;2.40;99.90;;;;;;5118881;28;20122;-68
2023/03/02 00:21:24;;;;;;;10.48;6.53;;;2.40;99.90;;;;;;5101886;28;20122;-67
2023/03/02 00:23:51;;;;;;;7.57;5.47;;;2.30;99.90;;;;;;5120175;28;20055;-68
2023/03/02 00:26:17;;;;;;;9.27;5.88;;;2.30;99.90;;;;;;5118541;28;20276;-69
2023/03/02 00:28:43;;;;;;;9.05;5.50;;;2.30;99.90;;;;;;5101758;28;20080;-68
2023/03/02 00:31:09;;;;;;;8.93;5.32;;;2.30;99.90;;;;;;5118710;28;20120;-67
2023/03/02 00:33:35;;;;;;;8.45;5.40;;;2.30;99.90;;;;;;5119291;28;20427;-67
2023/03/02 00:36:02;;;;;;;8.85;5.40;;;2.30;99.90;;;;;;5119167;28;20031;-67
2023/03/02 00:38:27;;;;;;;8.60;5.72;;;2.20;99.90;;;;;;5101477;28;20028;-67
2023/03/02 00:40:55;;;;;;;9.32;5.93;;;2.30;99.90;;;;;;5118334;28;20036;-68
2023/03/02 00:43:26;;;;;;;8.10;5.65;;;2.30;99.90;;;;;;5118368;28;20130;-67
2023/03/02 00:45:55;;;;;;;10.18;5.75;;;2.40;99.90;;;;;;5118347;28;20166;-69
2023/03/02 00:48:21;;;;;;;8.88;5.28;;;2.40;99.90;;;;;;5118265;28;20035;-69
2023/03/02 00:50:47;;;;;;;9.77;5.53;;;2.40;99.90;;;;;;5118963;28;20023;-68
2023/03/02 00:53:13;;;;;;;8.50;5.30;;;2.30;99.90;;;;;;5084314;28;20059;-68
2023/03/02 00:55:38;;;;;;;9.68;6.10;;;2.20;99.90;;;;;;5118189;28;20110;-70
2023/03/02 00:58:05;;;;;;;9.15;5.60;;;2.10;99.90;;;;;;5067768;28;20035;-68
2023/03/02 01:00:34;;;;;;;7.88;5.55;;;2.10;99.90;;;;;;5118708;28;20028;-68
2023/03/02 01:03:04;;;;;;;9.63;5.72;;;2.00;99.90;;;;;;5102441;28;20371;-69
2023/03/02 01:05:30;;;;;;;8.05;5.80;;;2.00;99.90;;;;;;5117968;28;20184;-68
2023/03/02 01:07:56;;;;;;;9.20;5.95;;;2.00;99.90;;;;;;5100557;28;20038;-67
2023/03/02 01:10:22;;;;;;;7.03;5.70;;;2.00;99.90;;;;;;5117873;28;20106;-68
2023/03/02 01:12:48;;;;;;;10.68;6.40;;;2.00;99.90;;;;;;5117809;28;20084;-68
2023/03/02 01:15:13;;;;;;;9.05;5.85;;;2.00;99.90;;;;;;5083987;28;20027;-68
2023/03/02 01:17:41;;;;;;;7.18;5.75;;;2.00;99.90;;;;;;5100875;28;20115;-68
2023/03/02 01:20:08;;;;;;;7.78;5.88;;;2.00;99.90;;;;;;5117781;28;20043;-68
2023/03/02 01:22:34;;;;;;;9.45;6.22;;;2.00;99.90;;;;;;5100707;28;20055;-68
2023/03/02 01:25:00;;;;;;;10.57;6.13;;;1.90;99.90;;;;;;5118287;28;20031;-69
2023/03/02 01:27:25;;;;;;;8.90;5.72;;;2.00;99.90;;;;;;5117583;28;20134;-69
2023/03/02 01:29:51;;;;;;;9.20;5.75;;;2.00;99.90;;;;;;5118231;28;20114;-69
2023/03/02 01:32:17;;;;;;;9.60;6.07;;;1.90;99.90;;;;;;5117522;28;20055;-69
2023/03/02 01:34:43;;;;;;;9.02;6.13;;;1.90;99.90;;;;;;5118140;28;20034;-69
2023/03/02 01:37:09;;;;;;;9.35;5.53;;;1.90;99.90;;;;;;5117311;28;20032;-69
2023/03/02 01:39:35;;;;;;;8.48;5.72;;;1.90;99.90;;;;;;5118035;28;20032;-69
2023/03/02 01:42:00;;;;;;;9.15;5.93;;;1.90;99.90;;;;;;5117290;28;20051;-69
2023/03/02 01:44:44;;;;;;;8.65;6.20;;;1.80;99.90;;;;;;5117808;28;20070;-69
2023/03/02 01:47:32;;;;;;;8.40;5.63;;;1.70;99.90;;;;;;5117195;28;20031;-69
2023/03/02 01:50:22;;;;;;;7.93;5.50;;;1.70;99.90;;;;;;5116965;28;20463;-69
2023/03/02 01:52:53;;;;;;;9.10;5.63;;;1.60;99.90;;;;;;5117626;28;20063;-69
2023/03/02 01:55:23;;;;;;;8.90;5.68;;;1.70;99.90;;;;;;5100111;28;20375;-69
2023/03/02 01:57:53;;;;;;;8.48;5.45;;;1.60;99.90;;;;;;5116966;28;20028;-70
2023/03/02 02:00:28;;;;;;;8.40;6.07;;;1.60;99.90;;;;;;5117298;28;20073;-68
2023/03/02 02:03:07;;;;;;;8.88;5.88;;;1.50;99.90;;;;;;5117823;28;20042;-69
2023/03/02 02:05:37;;;;;;;10.25;6.20;;;1.50;99.90;;;;;;5117133;28;20024;-68
2023/03/02 02:08:04;;;;;;;8.40;5.75;;;1.60;99.90;;;;;;5116879;28;20027;-68
2023/03/02 02:10:31;;;;;;;10.25;5.97;;;1.50;99.90;;;;;;5116818;28;20299;-68
2023/03/02 02:12:57;;;;;;;9.90;5.53;;;1.60;99.90;;;;;;5116891;28;20074;-68
2023/03/02 02:15:23;;;;;;;10.05;6.38;;;1.70;99.90;;;;;;5099933;28;20063;-68
2023/03/02 02:17:53;;;;;;;9.63;5.97;;;1.70;99.90;;;;;;5116691;28;20100;-69
2023/03/02 02:20:29;;;;;;;9.23;6.05;;;1.60;99.90;;;;;;5116944;28;20039;-68
2023/03/02 02:23:20;;;;;;;11.27;6.25;;;1.60;99.90;;;;;;5117486;28;20035;-69
2023/03/02 02:25:52;;;;;;;5.67;4.10;;;1.50;99.90;;;;;;5116754;28;20031;-68
2023/03/02 02:28:41;;;;;;;7.43;5.90;;;1.50;99.90;;;;;;5116653;28;20027;-69
2023/03/02 02:31:12;;;;;;;8.23;5.53;;;1.40;99.90;;;;;;5099604;28;20085;-68
2023/03/02 02:33:41;;;;;;;9.85;5.93;;;1.40;99.90;;;;;;5116631;28;20106;-68
2023/03/02 02:36:16;;;;;;;8.68;6.13;;;1.40;99.90;;;;;;5117239;28;20031;-69
2023/03/02 02:38:46;;;;;;;12.05;6.35;;;1.40;99.90;;;;;;5099512;28;20410;-68
2023/03/02 02:41:20;;;;;;;9.18;5.90;;;1.40;99.90;;;;;;5099726;28;20038;-68
2023/03/02 02:43:46;;;;;;;9.18;6.10;;;1.30;99.90;;;;;;5099600;28;20063;-68
2023/03/02 02:46:12;;;;;;;11.48;6.22;;;1.30;99.90;;;;;;5117081;28;20058;-68
2023/03/02 02:48:38;;;;;;;9.25;5.68;;;1.40;99.90;;;;;;5117082;28;20107;-69
2023/03/02 02:51:07;;;;;;;8.98;6.13;;;1.50;99.90;;;;;;5117060;28;20027;-69
2023/03/02 02:53:43;;;;;;;9.80;5.70;;;1.40;99.90;;;;;;5117069;28;20051;-68
2023/03/02 02:56:11;;;;;;;9.23;5.90;;;1.40;99.90;;;;;;5116103;28;20395;-69
2023/03/02 02:58:51;;;;;;;9.88;5.82;;;1.40;99.90;;;;;;5116261;28;20063;-69
2023/03/02 03:01:24;;;;;;;7.75;5.55;;;1.40;99.90;;;;;;5116452;28;20383;-68
2023/03/02 03:04:02;;;;;;;10.90;6.35;;;1.30;99.90;;;;;;5116317;28;20031;-68
2023/03/02 03:06:40;;;;;;;8.65;5.93;;;1.40;99.90;;;;;;5099194;28;20076;-68
2023/03/02 03:09:09;;;;;;;10.50;6.45;;;1.40;99.90;;;;;;5116236;28;20372;-69
2023/03/02 03:11:42;;;;;;;8.18;6.03;;;1.30;99.90;;;;;;5116212;28;20096;-68
2023/03/02 03:14:11;;;;;;;10.10;6.47;;;1.20;99.90;;;;;;5116145;28;20156;-68
2023/03/02 03:16:40;;;;;;;9.75;6.10;;;1.30;99.90;;;;;;5116956;28;20111;-69
2023/03/02 03:19:24;;;;;;;9.10;6.20;;;1.20;99.90;;;;;;5099193;28;20436;-69
2023/03/02 03:21:54;;;;;;;8.52;5.90;;;1.20;99.90;;;;;;5116083;28;20027;-69
2023/03/02 03:24:22;;;;;;;12.15;6.40;;;1.30;99.90;;;;;;5116159;28;20050;-69
2023/03/02 03:26:49;;;;;;;11.50;6.25;;;1.20;99.90;;;;;;5099151;28;20104;-69
2023/03/02 03:29:17;;;;;;;11.10;6.25;;;1.40;99.90;;;;;;5117346;28;20279;-69
2023/03/02 03:31:44;;;;;;;8.77;5.97;;;1.30;99.90;;;;;;5119746;28;20027;-68
2023/03/02 03:34:11;;;;;;;9.93;6.40;;;1.20;99.90;;;;;;5086263;28;20039;-68
2023/03/02 03:36:37;;;;;;;10.32;6.65;;;1.20;99.90;;;;;;5119598;28;20467;-68
2023/03/02 03:39:04;;;;;;;10.52;6.28;;;1.20;99.90;;;;;;5102658;28;20035;-68
2023/03/02 03:41:31;;;;;;;7.43;5.40;;;1.10;99.90;;;;;;5120387;27;20044;-68
2023/03/02 03:43:57;;;;;;;8.23;6.00;;;1.10;99.90;;;;;;5085850;28;20035;-69
2023/03/02 03:46:24;;;;;;;11.80;6.38;;;1.10;99.90;;;;;;5085704;28;20406;-68
2023/03/02 03:48:50;;;;;;;8.98;6.25;;;1.10;99.90;;;;;;5119401;28;20031;-69
2023/03/02 03:51:17;;;;;;;9.80;5.68;;;1.00;99.90;;;;;;5119328;28;20300;-68
2023/03/02 03:53:45;;;;;;;8.32;5.90;;;1.00;99.90;;;;;;5102492;28;20043;-68
2023/03/02 03:56:11;;;;;;;10.90;6.30;;;1.00;99.90;;;;;;5119192;28;20027;-68
2023/03/02 03:58:37;;;;;;;8.98;6.38;;;1.10;99.90;;;;;;5119107;28;20031;-68
2023/03/02 04:01:03;;;;;;;8.75;5.90;;;1.10;99.90;;;;;;5119121;28;20070;-68
2023/03/02 04:03:29;;;;;;;11.57;6.30;;;1.10;99.90;;;;;;5119107;28;20028;-68
2023/03/02 04:05:55;;;;;;;12.13;6.20;;;1.10;99.90;;;;;;5085313;28;20120;-68
2023/03/02 04:08:22;;;;;;;9.50;6.00;;;1.20;99.90;;;;;;5119106;28;20065;-68
2023/03/02 04:10:48;;;;;;;9.95;6.30;;;1.20;99.90;;;;;;5102068;28;20020;-69
2023/03/02 04:13:14;;;;;;;8.38;6.28;;;1.20;99.90;;;;;;5119642;28;20031;-68
2023/03/02 04:15:41;;;;;;;9.50;6.35;;;1.20;99.90;;;;;;5118722;28;20036;-69
2023/03/02 04:18:07;;;;;;;9.52;6.45;;;1.20;99.90;;;;;;5085381;28;20043;-69
2023/03/02 04:20:34;;;;;;;11.43;7.00;;;1.20;99.90;;;;;;5119712;28;20066;-69
2023/03/02 04:23:00;;;;;;;9.98;6.63;;;1.20;99.90;;;;;;5101456;28;20119;-69
2023/03/02 04:25:28;;;;;;;9.45;6.13;;;1.20;99.90;;;;;;5119428;28;20135;-71
2023/03/02 04:28:09;;;;;;;10.35;6.53;;;1.20;99.90;;;;;;5118734;28;20027;-71
2023/03/02 04:30:38;;;;;;;11.20;6.97;;;1.20;99.90;;;;;;5118502;28;20046;-70
2023/03/02 04:33:04;;;;;;;10.30;6.75;;;1.20;99.90;;;;;;5101719;28;20307;-71
2023/03/02 04:35:31;;;;;;;12.27;7.75;;;1.20;99.90;;;;;;5118591;28;20046;-70
2023/03/02 04:37:59;;;;;;;9.95;7.03;;;1.20;99.90;;;;;;5118698;28;20296;-70
2023/03/02 04:40:25;;;;;;;11.75;7.97;;;1.20;99.90;;;;;;5119186;28;20107;-70
2023/03/02 04:42:51;;;;;;;14.95;7.90;;;1.20;99.90;;;;;;5117670;28;20303;-71
2023/03/02 04:45:17;;;;;;;13.77;8.75;;;1.30;99.90;;;;;;5118989;28;20035;-70
2023/03/02 04:47:43;;;;;;;17.25;9.82;;;1.30;99.90;;;;;;5119289;28;20027;-70
2023/03/02 04:50:12;;;;;;;14.75;9.43;;;1.30;99.90;;;;;;5101244;28;20019;-71
2023/03/02 04:52:38;;;;;;;16.10;9.25;;;1.30;99.90;;;;;;5118705;27;20040;-70
2023/03/02 04:55:05;;;;;;;19.00;10.57;;;1.30;99.90;;;;;;5118283;28;20031;-69
2023/03/02 04:57:31;;;;;;;23.45;11.55;;;1.20;99.90;;;;;;5101429;28;20307;-71
2023/03/02 04:59:57;;;;;;;18.63;11.02;;;1.30;99.90;;;;;;5101134;28;20035;-71
2023/03/02 05:02:23;;;;;;;19.90;11.82;;;1.30;99.90;;;;;;5101304;28;20069;-71
2023/03/02 05:04:49;;;;;;;21.65;12.63;;;1.20;99.90;;;;;;5119119;28;20031;-70
2023/03/02 05:07:15;;;;;;;20.90;11.93;;;1.20;99.90;;;;;;5118614;28;20035;-70
2023/03/02 05:09:41;;;;;;;21.90;12.45;;;1.10;99.90;;;;;;5100990;28;20027;-71
2023/03/02 05:12:07;;;;;;;21.33;12.77;;;1.20;99.90;;;;;;5083962;28;20028;-71
2023/03/02 05:14:33;;;;;;;22.42;13.18;;;1.10;99.90;;;;;;5084023;28;20106;-71
2023/03/02 05:16:59;;;;;;;25.75;13.82;;;1.10;99.90;;;;;;5118395;28;20027;-71
2023/03/02 05:19:25;;;;;;;26.48;14.43;;;1.10;99.90;;;;;;5118199;28;20038;-70
2023/03/02 05:21:51;;;;;;;25.10;14.10;;;1.10;99.90;;;;;;5118343;28;20272;-71
2023/03/02 05:24:16;;;;;;;27.95;15.02;;;1.10;99.90;;;;;;5118556;28;20064;-71
2023/03/02 05:26:42;;;;;;;27.98;15.43;;;1.20;99.90;;;;;;5118150;28;20092;-70
2023/03/02 05:29:08;;;;;;;27.98;15.65;;;1.10;99.90;;;;;;5117248;28;20031;-71
2023/03/02 05:31:40;;;;;;;28.17;15.68;;;1.10;99.90;;;;;;5100893;28;20035;-70
2023/03/02 05:34:08;;;;;;;30.45;15.18;;;1.10;99.90;;;;;;5117393;28;20057;-70
2023/03/02 05:36:34;;;;;;;31.67;16.25;;;1.20;99.90;;;;;;5118044;28;20028;-70
2023/03/02 05:39:00;;;;;;;29.33;16.63;;;1.20;99.90;;;;;;5117343;28;20031;-70
2023/03/02 05:41:27;;;;;;;26.52;15.57;;;1.00;99.90;;;;;;5117198;28;20294;-70
2023/03/02 05:43:53;;;;;;;31.27;16.30;;;1.00;99.90;;;;;;5117068;28;20036;-70
2023/03/02 05:46:19;;;;;;;30.92;16.27;;;1.00;99.90;;;;;;5117029;28;20311;-70
2023/03/02 05:48:45;;;;;;;33.20;17.33;;;0.90;99.90;;;;;;5117070;28;20027;-70
2023/03/02 05:51:11;;;;;;;31.15;17.27;;;0.80;99.90;;;;;;5117190;28;20035;-71
2023/03/02 05:53:37;;;;;;;30.30;16.58;;;0.80;99.90;;;;;;5099954;28;20126;-70
2023/03/02 05:56:03;;;;;;;30.80;17.42;;;0.70;99.90;;;;;;5117676;28;20040;-70
2023/03/02 05:58:29;;;;;;;31.80;17.35;;;0.80;99.90;;;;;;5116915;28;20043;-70
2023/03/02 06:00:55;;;;;;;35.70;18.35;;;0.90;99.90;;;;;;5117019;28;20100;-70
2023/03/02 06:03:20;;;;;;;38.78;19.85;;;1.00;99.90;;;;;;5116993;28;20039;-70
2023/03/02 06:05:49;;;;;;;36.83;19.58;;;1.00;99.90;;;;;;5117625;28;20070;-71
2023/03/02 06:08:16;;;;;;;37.55;19.55;;;0.90;99.90;;;;;;5117384;28;20085;-72
2023/03/02 06:10:42;;;;;;;37.20;19.20;;;0.90;99.90;;;;;;5116726;28;20042;-71
2023/03/02 06:13:08;;;;;;;36.08;19.10;;;0.90;99.90;;;;;;5116590;28;20314;-70
2023/03/02 06:15:34;;;;;;;37.13;20.25;;;0.80;99.90;;;;;;5116887;28;20031;-70
2023/03/02 06:17:59;;;;;;;35.55;19.33;;;0.80;99.90;;;;;;5099819;28;20038;-70
2023/03/02 06:20:26;;;;;;;36.33;19.17;;;0.80;99.90;;;;;;5116743;28;20036;-70
2023/03/02 06:22:52;;;;;;;40.63;20.80;;;0.70;99.90;;;;;;5116815;28;20043;-71
2023/03/02 06:25:22;;;;;;;42.20;20.65;;;0.70;99.90;;;;;;5117471;28;20045;-71
2023/03/02 06:27:50;;;;;;;37.42;19.98;;;0.70;99.90;;;;;;5099690;28;20299;-70
2023/03/02 06:30:19;;;;;;;41.80;20.83;;;0.80;99.90;;;;;;5099726;28;20100;-69
2023/03/02 06:32:45;;;;;;;38.20;20.20;;;0.70;99.90;;;;;;5116331;28;20065;-69
2023/03/02 06:35:12;;;;;;;40.05;21.23;;;0.70;99.90;;;;;;5116421;28;20031;-69
2023/03/02 06:37:38;;;;;;;42.42;21.05;;;0.70;99.90;;;;;;5116770;28;20024;-69
2023/03/02 06:40:09;;;;;;;46.22;22.88;;;0.80;99.90;;;;;;5117219;28;20027;-69
2023/03/02 06:42:35;;;;;;;42.92;22.58;;;0.70;99.90;;;;;;5116421;28;20032;-69
2023/03/02 06:45:01;;;;;;;40.50;21.60;;;0.80;99.90;;;;;;5099311;28;20092;-69
2023/03/02 06:47:27;;;;;;;41.97;21.70;;;0.80;99.90;;;;;;5099441;28;20115;-70
2023/03/02 06:49:53;;;;;;;37.67;20.50;;;0.90;99.90;;;;;;5116192;28;20108;-70
2023/03/02 06:52:18;;;;;;;37.63;20.27;;;0.90;99.90;;;;;;5099025;28;20051;-68
2023/03/02 06:54:44;;;;;;;42.70;22.58;;;0.90;99.90;;;;;;5116768;28;20034;-69
2023/03/02 06:57:10;;;;;;;41.35;21.88;;;0.90;99.90;;;;;;5116962;28;20073;-70
2023/03/02 06:59:36;;;;;;;44.22;22.50;;;1.00;99.90;;;;;;5116106;28;20053;-68
2023/03/02 07:02:02;;;;;;;40.72;21.85;;;1.00;99.90;;;;;;5115959;28;20024;-69
2023/03/02 07:04:28;;;;;;;40.58;21.23;;;1.00;99.90;;;;;;5099075;28;20031;-68
2023/03/02 07:06:55;;;;;;;44.88;23.23;;;1.00;99.90;;;;;;5102987;28;20040;-68
2023/03/02 07:09:21;;;;;;;43.72;22.83;;;1.10;99.90;;;;;;5103017;28;20093;-67
2023/03/02 07:11:47;;;;;;;46.53;22.65;;;1.30;99.90;;;;;;5086296;28;20032;-69
2023/03/02 07:14:13;;;;;;;41.75;21.75;;;1.30;99.90;;;;;;5103050;28;20409;-68
2023/03/02 07:16:38;;;;;;;42.42;21.98;;;1.30;99.90;;;;;;5103178;28;20035;-68
2023/03/02 07:19:04;;;;;;;43.67;22.55;;;1.40;99.90;;;;;;5119929;28;20036;-69
2023/03/02 07:21:30;;;;;;;49.47;23.88;;;1.40;99.90;;;;;;5103347;28;20109;-70
2023/03/02 07:23:56;;;;;;;45.60;23.27;;;1.50;99.90;;;;;;5103114;28;20051;-68
2023/03/02 07:26:22;;;;;;;46.15;23.75;;;1.50;99.90;;;;;;5119713;28;20307;-68
2023/03/02 07:28:47;;;;;;;36.42;18.10;;;1.50;99.90;;;;;;5103169;28;20054;-70
2023/03/02 07:31:13;;;;;;;46.85;24.27;;;1.80;99.90;;;;;;5120151;28;20055;-66
2023/03/02 07:33:39;;;;;;;44.58;23.80;;;3.90;99.90;;;;;;5119829;28;20416;-71
2023/03/02 07:36:06;;;;;;;44.15;22.95;;;3.40;99.90;;;;;;5102862;28;20349;-71
2023/03/02 07:38:33;;;;;;;41.50;22.17;;;2.90;99.90;;;;;;5119538;28;20103;-72
2023/03/02 07:40:58;;;;;;;42.17;22.27;;;2.60;99.90;;;;;;5102767;28;20039;-70
2023/03/02 07:43:27;;;;;;;43.85;22.67;;;2.60;99.90;;;;;;5102585;28;20361;-70
2023/03/02 07:45:53;;;;;;;46.65;23.40;;;2.50;99.90;;;;;;5120307;28;20081;-66
2023/03/02 07:48:21;;;;;;;44.03;23.45;;;2.50;99.90;;;;;;5119444;28;20106;-66
2023/03/02 07:50:47;;;;;;;44.45;23.15;;;2.40;99.90;;;;;;5119332;28;20032;-67
2023/03/02 07:53:13;;;;;;;39.83;21.80;;;2.40;99.90;;;;;;5102352;28;20355;-67
2023/03/02 07:55:40;;;;;;;44.20;23.20;;;2.50;99.90;;;;;;5120067;28;20127;-67
2023/03/02 07:58:06;;;;;;;46.08;23.90;;;2.50;99.90;;;;;;5119371;28;20353;-67
2023/03/02 08:00:32;;;;;;;43.63;22.45;;;2.50;99.90;;;;;;5119888;28;20035;-66
2023/03/02 08:02:58;;;;;;;45.92;22.95;;;2.50;99.90;;;;;;5119944;28;20092;-65
2023/03/02 08:05:24;;;;;;;45.28;22.52;;;2.40;99.90;;;;;;5119695;28;20122;-65
2023/03/02 08:07:50;;;;;;;47.30;23.25;;;2.50;99.90;;;;;;5119067;28;20028;-66
2023/03/02 08:10:16;;;;;;;43.15;22.80;;;2.60;99.90;;;;;;5119299;28;20082;-65
2023/03/02 08:12:42;;;;;;;47.45;24.05;;;2.60;99.90;;;;;;5101961;28;20172;-66
2023/03/02 08:15:09;;;;;;;44.83;22.63;;;2.70;99.90;;;;;;5101882;28;20082;-66
2023/03/02 08:17:35;;;;;;;47.95;24.10;;;2.60;99.90;;;;;;5100683;28;20085;-67
2023/03/02 08:20:02;;;;;;;45.10;23.48;;;2.60;99.90;;;;;;5068385;28;20027;-66
2023/03/02 08:22:28;;;;;;;41.70;22.98;;;2.70;99.90;;;;;;5118783;28;20032;-66
2023/03/02 08:24:53;;;;;;;42.65;23.17;;;2.80;99.90;;;;;;5101660;28;20315;-66
2023/03/02 08:27:19;;;;;;;47.97;23.65;;;2.90;99.90;;;;;;5102333;28;20039;-69
2023/03/02 08:29:45;;;;;;;43.10;23.23;;;2.90;99.90;;;;;;5118771;28;20027;-71
2023/03/02 08:32:11;;;;;;;42.38;22.85;;;3.10;99.90;;;;;;5101601;28;20051;-71
2023/03/02 08:34:37;;;;;;;45.47;23.27;;;3.20;99.90;;;;;;5118546;28;20402;-71
2023/03/02 08:37:03;;;;;;;43.83;22.67;;;3.20;99.90;;;;;;5119355;28;20339;-71
2023/03/02 08:39:30;;;;;;;42.40;22.35;;;3.30;99.90;;;;;;5101432;28;20027;-71
2023/03/02 08:41:57;;;;;;;41.67;22.33;;;3.40;99.90;;;;;;5118450;28;20388;-71
2023/03/02 08:44:23;;;;;;;43.78;22.73;;;3.30;99.90;;;;;;5118378;28;20020;-71
2023/03/02 08:46:50;;;;;;;43.67;22.50;;;3.40;99.90;;;;;;5101438;28;20422;-72
2023/03/02 08:49:17;;;;;;;38.83;21.25;;;3.40;99.90;;;;;;5118943;28;20118;-71
2023/03/02 08:51:44;;;;;;;45.53;22.75;;;3.50;99.90;;;;;;5118292;28;20303;-72
2023/03/02 08:54:11;;;;;;;42.88;23.33;;;3.20;99.90;;;;;;5118063;28;20062;-71
2023/03/02 08:56:39;;;;;;;40.95;21.23;;;3.40;99.90;;;;;;5118132;28;20024;-72
2023/03/02 08:59:10;;;;;;;40.30;21.98;;;3.60;99.90;;;;;;5118085;28;20106;-72
2023/03/02 09:01:37;;;;;;;39.50;20.90;;;3.80;99.90;;;;;;5119408;28;20039;-72
2023/03/02 09:04:05;;;;;;;39.05;20.20;;;4.00;99.90;;;;;;5118784;28;20027;-71
2023/03/02 09:06:34;;;;;;;38.72;20.02;;;4.00;99.90;;;;;;5118639;27;20085;-72
2023/03/02 09:09:00;;;;;;;40.05;20.08;;;4.10;99.90;;;;;;5117896;28;20031;-72
2023/03/02 09:11:26;;;;;;;36.47;19.15;;;4.20;99.90;;;;;;5117893;28;20024;-72
2023/03/02 09:13:53;;;;;;;38.45;19.48;;;4.10;99.90;;;;;;5118590;28;20023;-71
2023/03/02 09:16:19;;;;;;;33.17;18.90;;;4.30;99.90;;;;;;5100679;28;20042;-71
2023/03/02 09:18:46;;;;;;;35.03;19.10;;;4.30;99.90;;;;;;5117833;28;20036;-71
2023/03/02 09:21:12;;;;;;;36.03;19.48;;;4.50;99.90;;;;;;5118361;28;20085;-71
2023/03/02 09:23:38;;;;;;;36.33;18.65;;;4.50;99.90;;;;;;5118244;28;20028;-72
2023/03/02 09:26:04;;;;;;;35.00;19.35;;;4.30;99.90;;;;;;5118287;28;20023;-71
2023/03/02 09:28:31;;;;;;;31.98;17.73;;;4.30;99.90;;;;;;5117900;28;20055;-71
2023/03/02 09:30:58;;;;;;;29.83;16.65;;;4.40;99.90;;;;;;5118245;28;20030;-71
2023/03/02 09:33:25;;;;;;;30.80;17.45;;;4.50;99.90;;;;;;5117389;28;20019;-70
2023/03/02 09:35:51;;;;;;;30.98;16.92;;;4.60;99.90;;;;;;5100427;28;20035;-71
2023/03/02 09:38:18;;;;;;;30.00;16.17;;;4.70;99.90;;;;;;5083561;28;20307;-71
2023/03/02 09:40:52;;;;;;;33.53;18.05;;;4.80;99.90;;;;;;5083446;28;20042;-72
2023/03/02 09:44:05;;;;;;;32.90;17.60;;;4.90;99.90;;;;;;5100187;28;20394;-73
2023/03/02 09:46:52;;;;;;;31.75;17.08;;;5.20;99.90;;;;;;5086363;28;20055;-70
2023/03/02 09:49:49;;;;;;;29.90;16.38;;;5.20;99.90;;;;;;5117305;28;20027;-72
2023/03/02 09:52:49;;;;;;;30.60;16.52;;;5.00;99.90;;;;;;5117694;28;20118;-71
2023/03/02 09:55:25;;;;;;;29.95;16.42;;;5.20;99.90;;;;;;5080178;28;20036;-72
2023/03/02 09:57:52;;;;;;;26.75;16.17;;;5.40;99.90;;;;;;5116985;28;20020;-71
2023/03/02 10:00:30;;;;;;;29.92;17.13;;;5.50;99.90;;;;;;5117708;28;20340;-72
2023/03/02 10:03:05;;;;;;;28.35;16.23;;;5.50;99.90;;;;;;5117761;28;20092;-70
2023/03/02 10:06:01;;;;;;;26.63;15.98;;;5.50;99.90;;;;;;5116920;28;20047;-71
2023/03/02 10:08:29;;;;;;;25.13;15.48;;;5.30;99.90;;;;;;5104046;28;20303;-72
2023/03/02 10:11:02;;;;;;;33.40;16.15;;;5.50;99.90;;;;;;5117762;28;20042;-71
2023/03/02 10:13:33;;;;;;;28.67;16.05;;;5.80;99.90;;;;;;5117561;28;20024;-73
2023/03/02 10:16:08;;;;;;;25.10;15.57;;;6.00;99.90;;;;;;5116839;28;20163;-71
2023/03/02 10:18:37;;;;;;;27.27;15.60;;;6.20;99.90;;;;;;5116809;28;20039;-71
2023/03/02 10:21:11;;;;;;;30.38;15.25;;;6.00;99.90;;;;;;5117518;28;20096;-71
2023/03/02 10:23:53;;;;;;;28.08;15.63;;;6.00;99.90;;;;;;5117545;27;20030;-71
2023/03/02 10:26:52;;;;;;;28.40;15.68;;;6.20;99.90;;;;;;5117424;28;20031;-71
2023/03/02 10:30:06;;;;;;;26.88;15.20;;;6.60;99.90;;;;;;5099758;28;20114;-71
2023/03/02 10:32:38;;;;;;;25.83;15.07;;;7.40;99.90;;;;;;5103718;28;20040;-68
2023/03/02 10:35:23;;;;;;;27.67;14.52;;;7.80;99.90;;;;;;5099749;28;20061;-70
2023/03/02 10:38:13;;;;;;;23.75;13.98;;;8.50;99.90;;;;;;5116469;28;20089;-70
2023/03/02 10:40:49;;;;;;;25.15;14.80;;;9.30;99.90;;;;;;5119679;28;20050;-71
2023/03/02 10:43:34;;;;;;;23.83;15.10;;;10.10;99.90;;;;;;5120760;28;20031;-70
2023/03/02 10:46:03;;;;;;;23.60;14.50;;;11.10;99.90;;;;;;5103621;28;20131;-70
2023/03/02 10:48:29;;;;;;;23.73;14.98;;;11.90;99.90;;;;;;5120587;28;20078;-69
2023/03/02 10:50:57;;;;;;;24.45;15.38;;;12.60;99.90;;;;;;5121336;28;20024;-70
2023/03/02 10:53:23;;;;;;;29.48;16.38;;;12.90;99.90;;;;;;5120367;28;20044;-69
2023/03/02 10:55:52;;;;;;;23.73;15.02;;;13.10;99.90;;;;;;5086733;28;20066;-70
2023/03/02 10:58:21;;;;;;;24.25;15.55;;;13.20;99.90;;;;;;5120936;28;20031;-69
2023/03/02 11:01:01;;;;;;;23.35;15.05;;;13.60;99.90;;;;;;5120264;28;20070;-69
2023/03/02 11:03:28;;;;;;;23.30;15.38;;;13.40;99.90;;;;;;5087487;28;20076;-69
2023/03/02 11:05:54;;;;;;;23.15;14.70;;;13.80;99.90;;;;;;5120111;28;20122;-71
2023/03/02 11:08:23;;;;;;;24.52;14.98;;;13.50;99.90;;;;;;5103327;28;20088;-71
2023/03/02 11:11:03;;;;;;;22.98;14.50;;;14.00;99.90;;;;;;5120385;28;20055;-70
2023/03/02 11:13:35;;;;;;;21.73;14.82;;;14.30;99.90;;;;;;5120664;28;20034;-70
2023/03/02 11:16:16;;;;;;;20.95;14.02;;;14.10;99.90;;;;;;5120274;28;20032;-70
2023/03/02 11:18:57;;;;;;;23.58;15.27;;;14.90;99.90;;;;;;5105442;28;20353;-70
2023/03/02 11:21:53;;;;;;;24.50;14.70;;;14.40;99.90;;;;;;5120750;28;20085;-69
2023/03/02 11:24:32;;;;;;;21.83;13.80;;;13.90;99.90;;;;;;5113192;28;20039;-70
2023/03/02 11:27:06;;;;;;;21.20;14.23;;;14.80;99.90;;;;;;5119828;28;20342;-69
2023/03/02 11:29:41;;;;;;;20.95;14.15;;;14.70;99.90;;;;;;5119743;28;20073;-70
2023/03/02 11:32:07;;;;;;;24.92;14.70;;;14.90;99.90;;;;;;5119826;28;20027;-70
2023/03/02 11:34:59;;;;;;;20.90;14.23;;;15.00;99.90;;;;;;5120546;28;20046;-69
2023/03/02 11:37:28;;;;;;;19.38;13.93;;;14.30;99.90;;;;;;5120472;28;20360;-69
2023/03/02 11:40:12;;;;;;;22.15;14.40;;;14.80;99.90;;;;;;5119698;28;20024;-69
2023/03/02 11:42:42;;;;;;;20.70;13.60;;;14.20;99.90;;;;;;5102654;28;20110;-70
2023/03/02 11:45:26;;;;;;;22.20;14.05;;;14.50;99.90;;;;;;5102458;28;20115;-71
2023/03/02 11:48:17;;;;;;;21.88;14.23;;;15.40;99.90;;;;;;5120336;28;20084;-69
2023/03/02 11:50:56;;;;;;;18.23;13.15;;;16.40;99.90;;;;;;5119758;28;20063;-69
2023/03/02 11:53:32;;;;;;;18.75;13.88;;;16.90;99.90;;;;;;5119315;28;20319;-68
2023/03/02 11:55:57;;;;;;;21.15;13.93;;;16.60;99.90;;;;;;5120197;28;20023;-71
2023/03/02 11:58:27;;;;;;;18.65;13.13;;;15.90;99.90;;;;;;5119307;28;20118;-70
2023/03/02 12:00:54;;;;;;;24.73;14.15;;;16.20;99.90;;;;;;5119973;28;20027;-69
2023/03/02 12:03:37;;;;;;;21.52;14.07;;;15.50;99.90;;;;;;5119899;28;20031;-69
2023/03/02 12:06:24;;;;;;;21.20;13.82;;;15.50;99.90;;;;;;5102106;28;20036;-70
2023/03/02 12:08:53;;;;;;;19.52;14.10;;;15.20;99.90;;;;;;5102159;28;20081;-69
2023/03/02 12:11:19;;;;;;;20.85;13.85;;;16.00;99.90;;;;;;5119821;28;20058;-70
2023/03/02 12:14:05;;;;;;;21.23;14.05;;;15.00;99.90;;;;;;5101961;28;20055;-69
2023/03/02 12:16:37;;;;;;;19.60;13.85;;;15.20;99.90;;;;;;5088055;28;20039;-70
2023/03/02 12:19:15;;;;;;;18.95;12.77;;;16.20;99.90;;;;;;5118935;28;20031;-70
2023/03/02 12:21:59;;;;;;;19.45;12.85;;;17.00;99.50;;;;;;5118915;28;20074;-71
2023/03/02 12:24:31;;;;;;;21.08;13.60;;;17.50;98.30;;;;;;5118761;28;20042;-70
2023/03/02 12:27:19;;;;;;;18.70;13.48;;;17.60;97.00;;;;;;5119589;28;20298;-71
2023/03/02 12:29:55;;;;;;;18.23;13.25;;;18.00;96.40;;;;;;5119471;28;20046;-70
2023/03/02 12:32:29;;;;;;;18.48;12.75;;;17.90;96.20;;;;;;5119097;28;20299;-69
2023/03/02 12:35:07;;;;;;;19.83;13.60;;;18.00;94.70;;;;;;5118895;28;20126;-70
2023/03/02 12:37:52;;;;;;;20.85;12.93;;;17.30;94.80;;;;;;5119349;28;20328;-69
2023/03/02 12:40:32;;;;;;;21.05;13.85;;;16.50;96.00;;;;;;5118521;28;20023;-70
2023/03/02 12:43:15;;;;;;;18.52;12.95;;;15.80;97.00;;;;;;5119191;28;20057;-68
2023/03/02 12:45:50;;;;;;;20.55;12.75;;;14.90;98.30;;;;;;5118198;28;20066;-69
2023/03/02 12:48:42;;;;;;;20.38;12.63;;;14.10;99.90;;;;;;5118974;28;20035;-68
2023/03/02 12:51:17;;;;;;;16.58;11.52;;;14.40;99.90;;;;;;5118948;28;20031;-69
2023/03/02 12:53:43;;;;;;;19.13;12.52;;;14.80;99.90;;;;;;5118966;28;20277;-68
2023/03/02 12:56:08;;;;;;;17.30;11.43;;;14.70;99.10;;;;;;5101244;28;20084;-69